Adak, Alaska
Current Conditions -  °F | °C
As of 1:56 PM on Saturday 25 Oct 2014 (Local Time) from PADK Reporting Station
Overcast Overcast  
Wind Chill:   Ceiling: 3800
Heat Index:   Visibility: 7mi
Dew Point:   Wind: 12mph
Humidity: 66%   Direction: 260°W
Pressure: 30.07"   Gusts: NA
Location:  51.88°N, 176.66°W
Report Text: PADK 252256Z AUTO 26010KT 7SM FEW017 FEW022 OVC038 09/03 A3007 RMK AO1
Loading
Personal Weather Stations






























Interactive Weather Map New forecast layout! Learn more

10-Day Weather Forecast

Advertisements
Track Severe Weather on mobile